createdAt,value
2019-05-28T00:00:33.763Z,56.71
2019-05-28T00:03:07.140Z,57.61
2019-05-28T00:05:40.138Z,58.11
2019-05-28T00:08:13.025Z,59.78
2019-05-28T00:10:45.595Z,61.01
2019-05-28T00:13:18.266Z,61.55
2019-05-28T00:15:50.680Z,62.81
2019-05-28T00:18:23.375Z,62.89
2019-05-28T00:20:56.035Z,58.29
2019-05-28T00:23:28.920Z,55.21
2019-05-28T00:26:01.320Z,56.30
2019-05-28T00:28:33.971Z,58.08
2019-05-28T00:31:06.945Z,57.98
2019-05-28T00:33:39.753Z,58.93
2019-05-28T00:36:12.238Z,60.39
2019-05-28T00:38:44.785Z,61.54
2019-05-28T00:41:18.525Z,63.36
2019-05-28T00:43:51.110Z,63.28
2019-05-28T00:46:23.720Z,58.16
2019-05-28T00:48:56.347Z,56.13
2019-05-28T00:51:29.396Z,57.27
2019-05-28T00:54:02.260Z,58.92
2019-05-28T00:56:36.005Z,59.88
2019-05-28T00:59:08.814Z,60.79
2019-05-28T01:01:41.240Z,61.34
2019-05-28T01:04:13.666Z,63.13
2019-05-28T01:06:46.219Z,61.88
2019-05-28T01:09:19.831Z,57.69
2019-05-28T01:11:52.226Z,55.96
2019-05-28T01:14:24.665Z,56.71
2019-05-28T01:16:58.455Z,57.30
2019-05-28T01:19:32.270Z,58.36
2019-05-28T01:22:06.060Z,59.36
2019-05-28T01:24:40.210Z,60.84
2019-05-28T01:27:13.470Z,62.24
2019-05-28T01:29:45.912Z,63.40
2019-05-28T01:32:19.715Z,63.76
2019-05-28T01:34:52.320Z,59.87
2019-05-28T01:37:24.790Z,55.91
2019-05-28T01:39:57.365Z,54.62
2019-05-28T01:42:29.840Z,55.75
2019-05-28T01:45:02.455Z,57.78
2019-05-28T01:47:36.284Z,59.42
2019-05-28T01:50:09.721Z,61.16
2019-05-28T01:52:43.518Z,62.30
2019-05-28T01:55:16.945Z,63.66
2019-05-28T01:57:49.771Z,63.30
2019-05-28T02:00:22.240Z,59.18
2019-05-28T02:02:54.958Z,56.96
2019-05-28T02:05:27.360Z,58.39
2019-05-28T02:07:59.776Z,59.71
2019-05-28T02:10:32.315Z,60.82
2019-05-28T02:13:05.263Z,61.97
2019-05-28T02:15:37.750Z,62.63
2019-05-28T02:18:10.251Z,63.33
2019-05-28T02:20:43.225Z,59.20
2019-05-28T02:23:15.663Z,57.18
2019-05-28T02:25:48.308Z,58.42
2019-05-28T02:28:21.106Z,59.83
2019-05-28T02:30:53.876Z,60.62
2019-05-28T02:33:26.474Z,62.04
2019-05-28T02:35:58.987Z,63.33
2019-05-28T02:38:31.426Z,63.56
2019-05-28T02:41:04.180Z,60.01
2019-05-28T02:43:37.103Z,56.53
2019-05-28T02:46:09.695Z,55.09
2019-05-28T02:48:42.355Z,56.34
2019-05-28T02:51:15.445Z,57.77
2019-05-28T02:53:47.995Z,59.33
2019-05-28T02:56:20.961Z,60.72
2019-05-28T02:58:55.700Z,62.14
2019-05-28T03:01:42.951Z,63.67
2019-05-28T03:04:05.405Z,63.70
2019-05-28T03:06:40.140Z,60.59
2019-05-28T03:09:12.677Z,56.74
2019-05-28T03:11:45.196Z,55.50
2019-05-28T03:14:17.870Z,56.78
2019-05-28T03:16:52.960Z,58.29
2019-05-28T03:19:27.157Z,59.50
2019-05-28T03:22:01.720Z,61.06
2019-05-28T03:24:36.809Z,62.31
2019-05-28T03:27:09.387Z,63.17
2019-05-28T03:29:41.990Z,63.57
2019-05-28T03:32:14.516Z,60.08
2019-05-28T03:34:47.056Z,56.49
2019-05-28T03:37:21.490Z,55.02
2019-05-28T03:39:56.440Z,56.37
2019-05-28T03:42:28.840Z,58.28
2019-05-28T03:45:01.353Z,59.64
2019-05-28T03:47:33.780Z,61.16
2019-05-28T03:50:08.526Z,61.65
2019-05-28T03:52:41.196Z,63.24
2019-05-28T03:55:13.919Z,63.49
2019-05-28T03:57:46.357Z,60.27
2019-05-28T04:00:19.471Z,56.37
2019-05-28T04:02:52.625Z,55.05
2019-05-28T04:05:25.265Z,56.17
2019-05-28T04:07:57.955Z,57.56
2019-05-28T04:10:30.405Z,59.03
2019-05-28T04:13:02.913Z,60.85
2019-05-28T04:15:35.961Z,62.50
2019-05-28T04:18:08.489Z,62.42
2019-05-28T04:20:41.005Z,59.31
2019-05-28T04:23:17.259Z,57.30
2019-05-28T04:25:49.710Z,58.08
2019-05-28T04:28:22.405Z,59.75
2019-05-28T04:30:54.835Z,61.36
2019-05-28T04:33:27.312Z,63.03
2019-05-28T04:35:59.880Z,63.22
2019-05-28T04:38:32.471Z,59.91
2019-05-28T04:41:05.101Z,56.45
2019-05-28T04:43:37.620Z,55.68
2019-05-28T04:46:10.055Z,57.04
2019-05-28T04:48:42.500Z,58.48
2019-05-28T04:51:15.052Z,60.05
2019-05-28T04:53:48.660Z,61.47
2019-05-28T04:56:21.230Z,63.07
2019-05-28T04:58:54.731Z,63.05
2019-05-28T05:01:27.232Z,59.84
2019-05-28T05:04:01.010Z,56.57
2019-05-28T05:06:33.638Z,55.10
2019-05-28T05:09:08.155Z,56.70
2019-05-28T05:11:41.035Z,57.79
2019-05-28T05:14:13.566Z,59.42
2019-05-28T05:16:46.246Z,60.97
2019-05-28T05:19:18.750Z,62.32
2019-05-28T05:21:51.417Z,63.21
2019-05-28T05:24:24.075Z,63.42
2019-05-28T05:26:56.650Z,59.71
2019-05-28T05:29:29.025Z,56.13
2019-05-28T05:32:01.856Z,54.61
2019-05-28T05:34:34.370Z,56.16
2019-05-28T05:37:07.115Z,57.27
2019-05-28T05:39:39.785Z,58.88
2019-05-28T05:42:12.500Z,60.49
2019-05-28T05:44:45.005Z,61.31
2019-05-28T05:47:17.550Z,62.86
2019-05-28T05:49:49.941Z,62.95
2019-05-28T05:52:22.910Z,59.02
2019-05-28T05:54:55.516Z,56.80
2019-05-28T05:57:28.038Z,57.89
2019-05-28T06:00:00.446Z,58.53
2019-05-28T06:02:33.094Z,59.85
2019-05-28T06:05:07.040Z,61.03
2019-05-28T06:07:39.706Z,62.00
2019-05-28T06:10:12.427Z,63.13
2019-05-28T06:12:45.580Z,63.22
2019-05-28T06:15:19.525Z,59.17
2019-05-28T06:17:52.086Z,56.83
2019-05-28T06:20:24.541Z,58.01
2019-05-28T06:22:56.946Z,59.35
2019-05-28T06:25:29.899Z,59.92
2019-05-28T06:28:02.415Z,61.30
2019-05-28T06:30:34.910Z,62.45
2019-05-28T06:33:07.555Z,62.23
2019-05-28T06:35:40.135Z,57.78
2019-05-28T06:38:12.605Z,55.66
2019-05-28T06:40:44.945Z,56.28
2019-05-28T06:43:17.445Z,58.19
2019-05-28T06:45:49.920Z,59.32
2019-05-28T06:48:22.432Z,61.10
2019-05-28T06:50:54.956Z,62.85
2019-05-28T06:53:27.238Z,62.10
2019-05-28T06:55:59.791Z,58.06
2019-05-28T06:58:39.425Z,56.57
2019-05-28T07:01:06.555Z,57.53
2019-05-28T07:03:39.210Z,58.23
2019-05-28T07:06:11.776Z,58.77
2019-05-28T07:08:44.495Z,60.40
2019-05-28T07:11:17.100Z,61.70
2019-05-28T07:13:49.510Z,63.38
2019-05-28T07:16:22.165Z,62.68
2019-05-28T07:18:54.580Z,59.35
2019-05-28T07:21:27.125Z,56.62
2019-05-28T07:23:59.510Z,58.16
2019-05-28T07:26:32.251Z,58.88
2019-05-28T07:29:04.735Z,58.97
2019-05-28T07:31:37.564Z,60.33
2019-05-28T07:34:10.345Z,60.51
2019-05-28T07:36:42.965Z,61.78
2019-05-28T07:39:16.390Z,63.18
2019-05-28T07:41:48.835Z,62.61
2019-05-28T07:44:21.465Z,58.25
2019-05-28T07:46:54.220Z,56.56
2019-05-28T07:49:26.686Z,56.89
2019-05-28T07:51:59.153Z,58.57
2019-05-28T07:54:31.755Z,59.15
2019-05-28T07:57:04.325Z,60.28
2019-05-28T07:59:36.820Z,61.96
2019-05-28T08:02:09.581Z,63.52
2019-05-28T08:04:47.164Z,62.59
2019-05-28T08:07:17.045Z,57.75
2019-05-28T08:09:49.760Z,56.21
2019-05-28T08:12:23.256Z,57.69
2019-05-28T08:14:55.790Z,58.70
2019-05-28T08:17:28.695Z,60.11
2019-05-28T08:20:01.362Z,61.82
2019-05-28T08:22:42.444Z,62.14
2019-05-28T08:25:27.238Z,63.08
2019-05-28T08:27:43.655Z,62.23
2019-05-28T08:30:16.325Z,58.42
2019-05-28T08:32:49.031Z,56.18
2019-05-28T08:35:21.495Z,56.64
2019-05-28T08:37:54.220Z,58.10
2019-05-28T08:40:27.070Z,59.34
2019-05-28T08:43:00.034Z,60.30
2019-05-28T08:45:32.700Z,62.02
2019-05-28T08:48:05.402Z,63.29
2019-05-28T08:50:37.768Z,62.66
2019-05-28T08:53:10.505Z,58.79
2019-05-28T08:55:43.118Z,57.32
2019-05-28T08:58:15.581Z,58.60
2019-05-28T09:00:48.271Z,58.99
2019-05-28T09:03:20.865Z,60.81
2019-05-28T09:05:53.499Z,62.50
2019-05-28T09:08:38.375Z,60.73
2019-05-28T09:11:00.230Z,57.76
2019-05-28T09:13:32.915Z,55.74
2019-05-28T09:16:05.381Z,56.46
2019-05-28T09:18:37.920Z,58.93
2019-05-28T09:21:10.502Z,59.59
2019-05-28T09:23:43.191Z,60.00
2019-05-28T09:26:15.640Z,61.25
2019-05-28T09:28:48.383Z,63.47
2019-05-28T09:31:20.662Z,62.26
2019-05-28T09:33:52.985Z,57.91
2019-05-28T09:36:25.460Z,56.66
2019-05-28T09:38:58.030Z,57.19
2019-05-28T09:41:30.705Z,58.31
2019-05-28T09:44:03.586Z,59.81
2019-05-28T09:46:36.175Z,60.92
2019-05-28T09:49:08.805Z,62.12
2019-05-28T09:51:41.230Z,62.45
2019-05-28T09:54:13.820Z,63.76
2019-05-28T09:56:46.591Z,60.13
2019-05-28T09:59:19.390Z,55.84
2019-05-28T10:01:52.190Z,54.91
2019-05-28T10:04:44.258Z,55.97
2019-05-28T10:06:59.429Z,57.13
2019-05-28T10:09:32.552Z,57.71
2019-05-28T10:12:05.215Z,59.00
2019-05-28T10:14:37.905Z,59.91
2019-05-28T10:17:10.545Z,61.81
2019-05-28T10:19:43.301Z,62.89
2019-05-28T10:22:15.745Z,62.48
2019-05-28T10:24:48.405Z,58.87
2019-05-28T10:27:20.690Z,57.36
2019-05-28T10:29:53.103Z,57.74
2019-05-28T10:32:25.770Z,58.83
2019-05-28T10:35:03.901Z,59.09
2019-05-28T10:37:32.390Z,60.39
2019-05-28T10:40:08.036Z,61.48
2019-05-28T10:42:41.195Z,62.42
2019-05-28T10:45:14.086Z,62.45
2019-05-28T10:47:46.785Z,59.47
2019-05-28T10:50:19.547Z,55.32
2019-05-28T10:52:51.982Z,54.10
2019-05-28T10:55:24.455Z,55.55
2019-05-28T10:57:56.776Z,56.79
2019-05-28T11:00:29.456Z,58.47
2019-05-28T11:03:02.256Z,59.53
2019-05-28T11:05:34.658Z,60.53
2019-05-28T11:08:07.036Z,61.59
2019-05-28T11:10:39.395Z,61.78
2019-05-28T11:13:11.756Z,62.68
2019-05-28T11:15:45.355Z,61.47
2019-05-28T11:18:17.680Z,58.10
2019-05-28T11:20:50.115Z,56.89
2019-05-28T11:23:22.596Z,57.91
2019-05-28T11:25:54.916Z,58.11
2019-05-28T11:28:27.195Z,60.12
2019-05-28T11:31:00.635Z,59.69
2019-05-28T11:33:33.007Z,60.40
2019-05-28T11:36:05.637Z,61.34
2019-05-28T11:38:37.918Z,62.85
2019-05-28T11:41:10.456Z,61.55
2019-05-28T11:43:42.735Z,58.84
2019-05-28T11:46:15.155Z,55.76
2019-05-28T11:48:47.556Z,56.48
2019-05-28T11:51:20.008Z,57.43
2019-05-28T11:53:52.356Z,59.54
2019-05-28T11:56:24.796Z,60.43
2019-05-28T11:58:57.137Z,60.18
2019-05-28T12:01:35.020Z,60.90
2019-05-28T12:04:04.857Z,62.03
2019-05-28T12:06:38.309Z,62.64
2019-05-28T12:09:11.036Z,61.26
2019-05-28T12:11:43.460Z,57.30
2019-05-28T12:14:16.036Z,55.38
2019-05-28T12:16:48.416Z,54.77
2019-05-28T12:19:20.842Z,55.79
2019-05-28T12:21:53.138Z,56.74
2019-05-28T12:24:28.291Z,57.14
2019-05-28T12:26:59.461Z,58.10
2019-05-28T12:29:31.796Z,58.69
2019-05-28T12:32:06.934Z,59.49
2019-05-28T12:34:38.475Z,60.70
2019-05-28T12:37:10.896Z,61.57
2019-05-28T12:39:43.486Z,62.65
2019-05-28T12:42:15.915Z,62.05
2019-05-28T12:44:48.356Z,58.27
2019-05-28T12:47:20.656Z,56.03
2019-05-28T12:49:53.040Z,56.62
2019-05-28T12:52:25.376Z,57.97
2019-05-28T12:54:57.695Z,58.54
2019-05-28T12:57:30.101Z,58.82
2019-05-28T13:00:02.529Z,60.16
2019-05-28T13:02:35.400Z,61.07
2019-05-28T13:05:14.136Z,61.41
2019-05-28T13:08:05.760Z,62.48
2019-05-28T13:10:21.055Z,62.29
2019-05-28T13:12:53.357Z,55.73
2019-05-28T13:15:25.975Z,55.24
2019-05-28T13:17:58.338Z,54.93
2019-05-28T13:20:30.731Z,55.92
2019-05-28T13:23:06.796Z,57.18
2019-05-28T13:25:39.175Z,57.67
2019-05-28T13:28:11.455Z,58.36
2019-05-28T13:30:43.819Z,59.03
2019-05-28T13:33:16.050Z,60.33
2019-05-28T13:35:48.635Z,61.62
2019-05-28T13:38:26.930Z,60.95
2019-05-28T13:40:54.956Z,62.43
2019-05-28T13:43:27.349Z,62.18
2019-05-28T13:45:59.757Z,57.70
2019-05-28T13:48:32.215Z,54.84
2019-05-28T13:51:05.435Z,54.28
2019-05-28T13:53:39.060Z,55.82
2019-05-28T13:56:11.676Z,57.16
2019-05-28T13:58:44.109Z,57.16
2019-05-28T14:01:16.637Z,58.34
2019-05-28T14:03:49.115Z,60.42
2019-05-28T14:06:21.369Z,60.63
2019-05-28T14:08:53.817Z,61.23
2019-05-28T14:11:26.737Z,62.18
2019-05-28T14:13:59.177Z,62.91
2019-05-28T14:16:31.479Z,64.46
2019-05-28T14:19:03.878Z,59.64
2019-05-28T14:21:36.340Z,55.62
2019-05-28T14:24:08.623Z,54.92
2019-05-28T14:26:41.015Z,55.84
2019-05-28T14:29:13.718Z,56.72
2019-05-28T14:31:46.021Z,57.71
2019-05-28T14:34:18.436Z,58.35
2019-05-28T14:36:50.695Z,59.37
2019-05-28T14:39:37.962Z,59.96
2019-05-28T14:41:57.950Z,61.24
2019-05-28T14:44:31.030Z,61.79
2019-05-28T14:47:03.491Z,62.32
2019-05-28T14:49:35.891Z,62.82
2019-05-28T14:52:08.159Z,61.84
2019-05-28T14:54:40.552Z,57.59
2019-05-28T14:57:13.137Z,55.13
2019-05-28T14:59:45.815Z,56.10
2019-05-28T15:02:18.733Z,56.62
2019-05-28T15:04:51.614Z,57.48
2019-05-28T15:07:24.369Z,58.36
2019-05-28T15:09:57.211Z,59.27
2019-05-28T15:12:29.641Z,60.14
2019-05-28T15:15:02.741Z,61.14
2019-05-28T15:17:35.449Z,61.86
2019-05-28T15:20:09.093Z,62.91
2019-05-28T15:22:43.191Z,62.83
2019-05-28T15:25:17.210Z,58.39
2019-05-28T15:27:49.660Z,55.57
2019-05-28T15:30:22.699Z,56.46
2019-05-28T15:32:55.231Z,57.41
2019-05-28T15:35:27.805Z,58.59
2019-05-28T15:38:00.326Z,59.73
2019-05-28T15:40:33.205Z,60.73
2019-05-28T15:43:06.887Z,62.09
2019-05-28T15:45:39.601Z,62.53
2019-05-28T15:48:12.356Z,62.19
2019-05-28T15:50:45.057Z,57.65
2019-05-28T15:53:17.575Z,56.29
2019-05-28T15:55:50.200Z,56.30
2019-05-28T15:58:23.231Z,57.00
2019-05-28T16:00:55.931Z,57.93
2019-05-28T16:03:28.575Z,59.22
2019-05-28T16:06:01.278Z,59.26
2019-05-28T16:08:34.021Z,60.45
2019-05-28T16:11:06.460Z,61.06
2019-05-28T16:13:38.872Z,62.03
2019-05-28T16:16:11.596Z,63.05
2019-05-28T16:18:44.306Z,61.75
2019-05-28T16:21:17.010Z,58.05
2019-05-28T16:23:49.525Z,55.61
2019-05-28T16:26:22.422Z,56.72
2019-05-28T16:28:54.945Z,57.32
2019-05-28T16:31:27.650Z,58.38
2019-05-28T16:34:00.245Z,60.64
2019-05-28T16:36:33.215Z,61.33
2019-05-28T16:39:08.991Z,62.63
2019-05-28T16:41:41.631Z,63.04
2019-05-28T16:44:14.175Z,57.76
2019-05-28T16:46:46.770Z,55.39
2019-05-28T16:49:19.483Z,55.91
2019-05-28T16:51:51.916Z,56.81
2019-05-28T16:54:24.651Z,58.39
2019-05-28T16:56:57.631Z,59.19
2019-05-28T16:59:30.375Z,60.75
2019-05-28T17:02:02.931Z,62.61
2019-05-28T17:04:35.530Z,61.18
2019-05-28T17:07:08.045Z,57.05
2019-05-28T17:09:40.907Z,55.90
2019-05-28T17:12:13.396Z,56.68
2019-05-28T17:14:45.920Z,58.66
2019-05-28T17:17:18.387Z,58.78
2019-05-28T17:19:51.006Z,60.96
2019-05-28T17:22:23.591Z,60.59
2019-05-28T17:24:56.227Z,62.00
2019-05-28T17:27:28.893Z,63.76
2019-05-28T17:30:17.340Z,64.15
2019-05-28T17:32:36.936Z,59.92
2019-05-28T17:35:10.346Z,55.46
2019-05-28T17:37:42.866Z,54.29
2019-05-28T17:40:21.987Z,55.05
2019-05-28T17:42:52.349Z,56.93
2019-05-28T17:45:25.527Z,58.00
2019-05-28T17:47:58.549Z,60.06
2019-05-28T17:50:31.174Z,59.78
2019-05-28T17:53:03.593Z,61.72
2019-05-28T17:55:36.438Z,62.76
2019-05-28T17:58:09.230Z,62.93
2019-05-28T18:00:42.893Z,59.47
2019-05-28T18:03:15.315Z,57.07
2019-05-28T18:05:48.005Z,58.02
2019-05-28T18:08:20.815Z,59.08
2019-05-28T18:11:03.718Z,60.48
2019-05-28T18:13:28.553Z,61.41
2019-05-28T18:16:01.391Z,63.00
2019-05-28T18:18:33.919Z,63.05
2019-05-28T18:21:06.526Z,59.94
2019-05-28T18:23:39.204Z,56.29
2019-05-28T18:26:11.945Z,54.32
2019-05-28T18:28:44.590Z,55.27
2019-05-28T18:31:17.357Z,56.81
2019-05-28T18:33:49.817Z,57.78
2019-05-28T18:36:22.305Z,59.02
2019-05-28T18:38:54.841Z,60.18
2019-05-28T18:41:28.020Z,61.03
2019-05-28T18:44:01.533Z,63.65
2019-05-28T18:46:34.691Z,62.63
2019-05-28T18:49:07.395Z,59.18
2019-05-28T18:51:40.051Z,56.76
2019-05-28T18:54:12.507Z,57.71
2019-05-28T18:56:45.066Z,58.64
2019-05-28T18:59:17.688Z,60.60
2019-05-28T19:01:50.405Z,61.73
2019-05-28T19:04:23.236Z,62.95
2019-05-28T19:06:55.696Z,62.72
2019-05-28T19:09:28.360Z,59.32
2019-05-28T19:12:01.046Z,56.69
2019-05-28T19:14:33.991Z,57.50
2019-05-28T19:17:06.981Z,59.02
2019-05-28T19:19:40.709Z,60.39
2019-05-28T19:22:13.466Z,61.48
2019-05-28T19:24:46.170Z,62.93
2019-05-28T19:27:18.606Z,62.95
2019-05-28T19:29:51.196Z,59.26
2019-05-28T19:32:23.746Z,57.00
2019-05-28T19:34:56.930Z,57.98
2019-05-28T19:37:29.660Z,59.47
2019-05-28T19:40:02.435Z,61.09
2019-05-28T19:42:35.157Z,61.40
2019-05-28T19:45:11.110Z,63.42
2019-05-28T19:47:43.990Z,62.59
2019-05-28T19:50:16.868Z,59.72
2019-05-28T19:52:49.469Z,55.82
2019-05-28T19:55:21.985Z,54.21
2019-05-28T19:57:54.307Z,55.35
2019-05-28T20:00:27.772Z,56.92
2019-05-28T20:03:00.925Z,58.16
2019-05-28T20:05:33.578Z,59.34
2019-05-28T20:08:06.225Z,60.70
2019-05-28T20:10:39.135Z,62.66
2019-05-28T20:13:12.643Z,62.97
2019-05-28T20:15:45.435Z,59.93
2019-05-28T20:18:26.202Z,55.86
2019-05-28T20:20:52.260Z,54.48
2019-05-28T20:23:24.841Z,55.24
2019-05-28T20:25:57.432Z,56.80
2019-05-28T20:28:30.103Z,57.85
2019-05-28T20:31:03.688Z,59.64
2019-05-28T20:33:36.571Z,61.11
2019-05-28T20:36:10.025Z,62.58
2019-05-28T20:38:42.735Z,62.35
2019-05-28T20:41:15.576Z,58.95
2019-05-28T20:43:48.235Z,55.79
2019-05-28T20:46:20.825Z,56.80
2019-05-28T20:48:53.800Z,58.14
2019-05-28T20:51:26.510Z,59.45
2019-05-28T20:53:59.055Z,60.85
2019-05-28T20:56:31.573Z,62.61
2019-05-28T20:59:04.195Z,63.07
2019-05-28T21:01:37.240Z,59.65
2019-05-28T21:04:09.743Z,56.40
2019-05-28T21:06:43.476Z,57.32
2019-05-28T21:09:16.080Z,58.37
2019-05-28T21:11:48.729Z,59.77
2019-05-28T21:14:21.306Z,60.80
2019-05-28T21:16:54.984Z,61.90
2019-05-28T21:19:27.825Z,63.53
2019-05-28T21:22:00.590Z,62.98
2019-05-28T21:24:33.291Z,59.24
2019-05-28T21:27:06.101Z,57.01
2019-05-28T21:29:38.751Z,57.48
2019-05-28T21:32:12.331Z,58.93
2019-05-28T21:34:44.955Z,59.77
2019-05-28T21:37:17.565Z,60.83
2019-05-28T21:39:51.329Z,61.81
2019-05-28T21:42:23.915Z,63.50
2019-05-28T21:44:56.415Z,63.57
2019-05-28T21:47:28.941Z,60.57
2019-05-28T21:50:02.045Z,56.80
2019-05-28T21:52:35.786Z,54.72
2019-05-28T21:55:10.070Z,55.61
2019-05-28T21:57:42.415Z,56.97
2019-05-28T22:00:29.700Z,57.96
2019-05-28T22:03:05.083Z,59.32
2019-05-28T22:05:37.860Z,60.96
2019-05-28T22:08:10.480Z,61.67
2019-05-28T22:10:44.509Z,63.40
2019-05-28T22:13:22.249Z,63.56
2019-05-28T22:15:51.156Z,60.66
2019-05-28T22:18:23.557Z,56.73
2019-05-28T22:20:56.669Z,55.04
2019-05-28T22:23:29.311Z,55.54
2019-05-28T22:26:02.661Z,57.06
2019-05-28T22:28:35.366Z,57.92
2019-05-28T22:31:08.173Z,59.71
2019-05-28T22:33:41.290Z,61.07
2019-05-28T22:36:13.705Z,61.91
2019-05-28T22:38:47.901Z,62.54
2019-05-28T22:41:20.635Z,63.88
2019-05-28T22:43:53.165Z,60.12
2019-05-28T22:46:25.700Z,56.28
2019-05-28T22:48:59.149Z,54.32
2019-05-28T22:51:31.960Z,55.42
2019-05-28T22:54:06.069Z,56.66
2019-05-28T22:56:39.935Z,58.07
2019-05-28T22:59:12.335Z,59.04
2019-05-28T23:01:45.291Z,60.30
2019-05-28T23:04:17.735Z,60.73
2019-05-28T23:06:50.310Z,62.07
2019-05-28T23:09:22.954Z,63.18
2019-05-28T23:11:55.607Z,64.14
2019-05-28T23:14:30.850Z,60.30
2019-05-28T23:17:04.178Z,55.74
2019-05-28T23:19:36.650Z,54.29
2019-05-28T23:22:09.390Z,55.28
2019-05-28T23:24:41.930Z,56.66
2019-05-28T23:27:14.290Z,58.12
2019-05-28T23:29:46.767Z,59.05
2019-05-28T23:32:19.485Z,60.90
2019-05-28T23:34:52.025Z,62.15
2019-05-28T23:37:24.705Z,62.47
2019-05-28T23:39:57.645Z,63.72
2019-05-28T23:42:29.997Z,59.97
2019-05-28T23:45:03.487Z,55.93
2019-05-28T23:47:36.311Z,56.65
2019-05-28T23:50:14.456Z,57.60
2019-05-28T23:52:44.327Z,57.98
2019-05-28T23:55:18.110Z,59.04
2019-05-28T23:57:50.531Z,58.83
